sensor_id;sensor_type;location;lat;lon;timestamp;pressure;altitude;pressure_sealevel;temperature;humidity
9423;BME280;65863;49.506;10.400;2023-02-22T00:00:46;97986.56;;;1.00;94.43
9423;BME280;65863;49.506;10.400;2023-02-22T00:03:32;98017.91;;;1.18;94.60
9423;BME280;65863;49.506;10.400;2023-02-22T00:06:19;98012.81;;;1.11;93.99
9423;BME280;65863;49.506;10.400;2023-02-22T00:09:03;97981.28;;;0.76;94.45
9423;BME280;65863;49.506;10.400;2023-02-22T00:11:47;97992.94;;;0.86;94.32
9423;BME280;65863;49.506;10.400;2023-02-22T00:14:32;98006.16;;;0.76;94.34
9423;BME280;65863;49.506;10.400;2023-02-22T00:17:16;97962.22;;;0.52;94.25
9423;BME280;65863;49.506;10.400;2023-02-22T00:20:01;98003.88;;;0.75;94.52
9423;BME280;65863;49.506;10.400;2023-02-22T00:22:49;98004.75;;;0.60;94.43
9423;BME280;65863;49.506;10.400;2023-02-22T00:25:34;97984.03;;;0.50;94.70
9423;BME280;65863;49.506;10.400;2023-02-22T00:28:19;98008.06;;;0.44;94.62
9423;BME280;65863;49.506;10.400;2023-02-22T00:31:05;98000.00;;;0.40;94.80
9423;BME280;65863;49.506;10.400;2023-02-22T00:33:50;98000.34;;;0.27;94.51
9423;BME280;65863;49.506;10.400;2023-02-22T00:36:34;97978.94;;;0.22;94.71
9423;BME280;65863;49.506;10.400;2023-02-22T00:39:18;97980.19;;;0.21;94.83
9423;BME280;65863;49.506;10.400;2023-02-22T00:42:02;97982.38;;;0.17;95.08
9423;BME280;65863;49.506;10.400;2023-02-22T00:44:46;97992.06;;;0.27;95.18
9423;BME280;65863;49.506;10.400;2023-02-22T00:47:30;97981.69;;;0.22;94.95
9423;BME280;65863;49.506;10.400;2023-02-22T00:50:18;97993.84;;;0.30;95.23
9423;BME280;65863;49.506;10.400;2023-02-22T00:53:03;97994.19;;;0.17;95.43
9423;BME280;65863;49.506;10.400;2023-02-22T00:55:48;97968.16;;;0.04;95.43
9423;BME280;65863;49.506;10.400;2023-02-22T00:58:32;97981.38;;;0.14;95.25
9423;BME280;65863;49.506;10.400;2023-02-22T01:01:16;97974.38;;;0.19;95.46
9423;BME280;65863;49.506;10.400;2023-02-22T01:04:00;97962.31;;;0.16;95.74
9423;BME280;65863;49.506;10.400;2023-02-22T01:06:44;97990.59;;;0.32;95.50
9423;BME280;65863;49.506;10.400;2023-02-22T01:09:29;97959.06;;;-0.03;95.55
9423;BME280;65863;49.506;10.400;2023-02-22T01:12:12;97953.25;;;-0.05;95.50
9423;BME280;65863;49.506;10.400;2023-02-22T01:14:58;97982.94;;;0.21;95.75
9423;BME280;65863;49.506;10.400;2023-02-22T01:17:41;97968.56;;;0.17;95.95
9423;BME280;65863;49.506;10.400;2023-02-22T01:20:27;97977.53;;;0.32;95.94
9423;BME280;65863;49.506;10.400;2023-02-22T01:23:14;97928.28;;;-0.16;95.96
9423;BME280;65863;49.506;10.400;2023-02-22T01:25:59;97943.31;;;0.04;95.83
9423;BME280;65863;49.506;10.400;2023-02-22T01:28:43;97954.94;;;0.08;95.85
9423;BME280;65863;49.506;10.400;2023-02-22T01:31:27;97973.34;;;0.16;95.82
9423;BME280;65863;49.506;10.400;2023-02-22T01:34:12;97962.47;;;0.07;96.00
9423;BME280;65863;49.506;10.400;2023-02-22T01:36:59;97945.19;;;-0.08;95.86
9423;BME280;65863;49.506;10.400;2023-02-22T01:39:44;97924.63;;;-0.28;96.09
9423;BME280;65863;49.506;10.400;2023-02-22T01:42:29;97948.94;;;-0.11;95.82
9423;BME280;65863;49.506;10.400;2023-02-22T01:48:44;97883.44;;;-0.52;95.65
9423;BME280;65863;49.506;10.400;2023-02-22T01:51:32;97952.91;;;-0.12;96.04
9423;BME280;65863;49.506;10.400;2023-02-22T01:54:24;97959.34;;;-0.01;95.91
9423;BME280;65863;49.506;10.400;2023-02-22T01:57:19;97951.59;;;0.04;95.95
9423;BME280;65863;49.506;10.400;2023-02-22T02:00:13;97932.22;;;-0.23;95.53
9423;BME280;65863;49.506;10.400;2023-02-22T02:03:05;97946.63;;;-0.13;95.64
9423;BME280;65863;49.506;10.400;2023-02-22T02:05:51;97900.72;;;-0.52;95.47
9423;BME280;65863;49.506;10.400;2023-02-22T02:11:26;97939.13;;;0.08;95.56
9423;BME280;65863;49.506;10.400;2023-02-22T02:14:16;97895.09;;;-0.22;95.43
9423;BME280;65863;49.506;10.400;2023-02-22T02:17:00;97930.63;;;0.12;95.66
9423;BME280;65863;49.506;10.400;2023-02-22T02:20:12;97913.94;;;0.01;95.80
9423;BME280;65863;49.506;10.400;2023-02-22T02:35:59;97910.75;;;-0.13;95.47
9423;BME280;65863;49.506;10.400;2023-02-22T02:38:51;97896.63;;;-0.21;95.54
9423;BME280;65863;49.506;10.400;2023-02-22T02:41:48;97820.69;;;-0.57;95.51
9423;BME280;65863;49.506;10.400;2023-02-22T02:44:46;97899.53;;;-0.09;96.02
9423;BME280;65863;49.506;10.400;2023-02-22T02:47:36;97921.13;;;0.13;95.82
9423;BME280;65863;49.506;10.400;2023-02-22T02:50:34;97900.28;;;-0.09;95.63
9423;BME280;65863;49.506;10.400;2023-02-22T02:53:25;97913.78;;;0.10;95.72
9423;BME280;65863;49.506;10.400;2023-02-22T02:56:11;97926.16;;;0.14;95.69
9423;BME280;65863;49.506;10.400;2023-02-22T02:58:56;97916.97;;;0.23;96.08
9423;BME280;65863;49.506;10.400;2023-02-22T03:01:52;97917.16;;;0.20;95.75
9423;BME280;65863;49.506;10.400;2023-02-22T03:04:50;97895.16;;;0.05;95.77
9423;BME280;65863;49.506;10.400;2023-02-22T03:11:15;97871.03;;;-0.21;95.65
9423;BME280;65863;49.506;10.400;2023-02-22T03:17:09;97891.16;;;-0.15;95.93
9423;BME280;65863;49.506;10.400;2023-02-22T03:20:12;97904.22;;;-0.15;95.82
9423;BME280;65863;49.506;10.400;2023-02-22T03:23:10;97858.31;;;-0.54;95.63
9423;BME280;65863;49.506;10.400;2023-02-22T03:26:01;97875.31;;;-0.41;95.84
9423;BME280;65863;49.506;10.400;2023-02-22T03:28:50;97888.13;;;-0.38;95.70
9423;BME280;65863;49.506;10.400;2023-02-22T03:31:43;97877.09;;;-0.38;96.25
9423;BME280;65863;49.506;10.400;2023-02-22T03:34:36;97881.38;;;-0.37;95.86
9423;BME280;65863;49.506;10.400;2023-02-22T03:37:27;97879.59;;;-0.40;95.97
9423;BME280;65863;49.506;10.400;2023-02-22T03:40:17;97872.00;;;-0.45;95.88
9423;BME280;65863;49.506;10.400;2023-02-22T03:43:13;97871.84;;;-0.36;95.92
9423;BME280;65863;49.506;10.400;2023-02-22T03:46:01;97872.19;;;-0.28;95.83
9423;BME280;65863;49.506;10.400;2023-02-22T03:48:51;97875.53;;;-0.24;96.00
9423;BME280;65863;49.506;10.400;2023-02-22T03:51:37;97850.47;;;-0.41;96.02
9423;BME280;65863;49.506;10.400;2023-02-22T03:54:22;97851.63;;;-0.47;96.11
9423;BME280;65863;49.506;10.400;2023-02-22T03:57:17;97852.38;;;-0.47;96.27
9423;BME280;65863;49.506;10.400;2023-02-22T04:00:11;97832.25;;;-0.53;96.47
9423;BME280;65863;49.506;10.400;2023-02-22T04:02:58;97871.22;;;-0.25;96.60
9423;BME280;65863;49.506;10.400;2023-02-22T04:05:42;97837.38;;;-0.46;96.31
9423;BME280;65863;49.506;10.400;2023-02-22T04:08:26;97833.22;;;-0.56;96.71
9423;BME280;65863;49.506;10.400;2023-02-22T04:11:10;97856.25;;;-0.39;96.78
9423;BME280;65863;49.506;10.400;2023-02-22T04:13:54;97842.69;;;-0.42;96.64
9423;BME280;65863;49.506;10.400;2023-02-22T04:16:38;97874.81;;;-0.19;96.78
9423;BME280;65863;49.506;10.400;2023-02-22T04:19:26;97840.56;;;-0.32;97.06
9423;BME280;65863;49.506;10.400;2023-02-22T04:22:10;97863.19;;;-0.28;97.02
9423;BME280;65863;49.506;10.400;2023-02-22T04:24:54;97847.56;;;-0.31;96.85
9423;BME280;65863;49.506;10.400;2023-02-22T04:27:38;97843.56;;;-0.30;97.13
9423;BME280;65863;49.506;10.400;2023-02-22T04:30:23;97863.44;;;-0.26;97.06
9423;BME280;65863;49.506;10.400;2023-02-22T04:33:07;97844.53;;;-0.33;96.96
9423;BME280;65863;49.506;10.400;2023-02-22T04:35:52;97842.28;;;-0.35;97.19
9423;BME280;65863;49.506;10.400;2023-02-22T04:38:37;97852.81;;;-0.33;97.25
9423;BME280;65863;49.506;10.400;2023-02-22T04:41:20;97835.31;;;-0.51;97.16
9423;BME280;65863;49.506;10.400;2023-02-22T04:44:04;97846.41;;;-0.25;97.59
9423;BME280;65863;49.506;10.400;2023-02-22T04:46:50;97811.72;;;-0.52;97.38
9423;BME280;65863;49.506;10.400;2023-02-22T04:49:35;97850.63;;;-0.29;97.37
9423;BME280;65863;49.506;10.400;2023-02-22T04:52:20;97811.44;;;-0.54;97.47
9423;BME280;65863;49.506;10.400;2023-02-22T04:55:05;97844.31;;;-0.30;97.72
9423;BME280;65863;49.506;10.400;2023-02-22T04:57:50;97839.72;;;-0.39;97.66
9423;BME280;65863;49.506;10.400;2023-02-22T05:00:34;97776.97;;;-0.85;97.66
9423;BME280;65863;49.506;10.400;2023-02-22T05:03:20;97847.16;;;-0.24;97.74
9423;BME280;65863;49.506;10.400;2023-02-22T05:06:04;97817.94;;;-0.37;97.83
9423;BME280;65863;49.506;10.400;2023-02-22T05:08:48;97844.69;;;-0.22;97.89
9423;BME280;65863;49.506;10.400;2023-02-22T05:11:32;97834.25;;;-0.33;97.84
9423;BME280;65863;49.506;10.400;2023-02-22T05:14:17;97799.47;;;-0.51;98.00
9423;BME280;65863;49.506;10.400;2023-02-22T05:17:01;97832.34;;;-0.27;98.06
9423;BME280;65863;49.506;10.400;2023-02-22T05:19:46;97817.56;;;-0.44;98.11
9423;BME280;65863;49.506;10.400;2023-02-22T05:22:30;97832.00;;;-0.35;97.87
9423;BME280;65863;49.506;10.400;2023-02-22T05:25:14;97808.00;;;-0.49;98.00
9423;BME280;65863;49.506;10.400;2023-02-22T05:28:03;97843.56;;;-0.30;97.75
9423;BME280;65863;49.506;10.400;2023-02-22T05:30:48;97808.81;;;-0.63;98.03
9423;BME280;65863;49.506;10.400;2023-02-22T05:33:32;97808.25;;;-0.47;98.52
9423;BME280;65863;49.506;10.400;2023-02-22T05:36:16;97818.50;;;-0.32;97.98
9423;BME280;65863;49.506;10.400;2023-02-22T05:39:00;97813.59;;;-0.43;98.31
9423;BME280;65863;49.506;10.400;2023-02-22T05:41:47;97787.31;;;-0.59;98.36
9423;BME280;65863;49.506;10.400;2023-02-22T05:44:31;97809.91;;;-0.35;98.67
9423;BME280;65863;49.506;10.400;2023-02-22T05:47:15;97809.50;;;-0.27;98.46
9423;BME280;65863;49.506;10.400;2023-02-22T05:49:59;97816.75;;;-0.30;98.43
9423;BME280;65863;49.506;10.400;2023-02-22T05:52:45;97823.22;;;-0.12;98.54
9423;BME280;65863;49.506;10.400;2023-02-22T05:55:29;97808.31;;;-0.21;98.40
9423;BME280;65863;49.506;10.400;2023-02-22T05:58:14;97804.47;;;-0.29;98.54
9423;BME280;65863;49.506;10.400;2023-02-22T06:00:58;97832.00;;;-0.14;98.91
9423;BME280;65863;49.506;10.400;2023-02-22T06:03:46;97817.09;;;-0.22;98.79
9423;BME280;65863;49.506;10.400;2023-02-22T06:06:30;97826.19;;;-0.16;98.82
9423;BME280;65863;49.506;10.400;2023-02-22T06:09:14;97813.28;;;-0.25;98.92
9423;BME280;65863;49.506;10.400;2023-02-22T06:11:58;97810.75;;;-0.28;99.17
9423;BME280;65863;49.506;10.400;2023-02-22T06:14:42;97813.78;;;-0.26;99.07
9423;BME280;65863;49.506;10.400;2023-02-22T06:17:28;97807.72;;;-0.30;99.13
9423;BME280;65863;49.506;10.400;2023-02-22T06:20:15;97818.69;;;-0.15;99.23
9423;BME280;65863;49.506;10.400;2023-02-22T06:23:00;97813.22;;;-0.10;99.02
9423;BME280;65863;49.506;10.400;2023-02-22T06:25:44;97812.06;;;-0.24;99.36
9423;BME280;65863;49.506;10.400;2023-02-22T06:28:28;97816.41;;;-0.17;99.39
9423;BME280;65863;49.506;10.400;2023-02-22T06:31:12;97832.06;;;-0.08;99.32
9423;BME280;65863;49.506;10.400;2023-02-22T06:33:56;97797.72;;;-0.28;99.40
9423;BME280;65863;49.506;10.400;2023-02-22T06:36:40;97805.81;;;-0.19;99.45
9423;BME280;65863;49.506;10.400;2023-02-22T06:39:25;97831.94;;;0.07;99.40
9423;BME280;65863;49.506;10.400;2023-02-22T06:42:09;97807.16;;;-0.14;99.78
9423;BME280;65863;49.506;10.400;2023-02-22T06:44:53;97830.84;;;-0.02;99.50
9423;BME280;65863;49.506;10.400;2023-02-22T06:47:38;97819.28;;;-0.06;99.74
9423;BME280;65863;49.506;10.400;2023-02-22T06:50:27;97830.53;;;0.17;100.00
9423;BME280;65863;49.506;10.400;2023-02-22T06:53:12;97816.31;;;0.24;99.79
9423;BME280;65863;49.506;10.400;2023-02-22T06:55:56;97843.28;;;0.35;99.97
9423;BME280;65863;49.506;10.400;2023-02-22T06:58:40;97802.53;;;0.24;100.00
9423;BME280;65863;49.506;10.400;2023-02-22T07:01:24;97813.13;;;0.31;100.00
9423;BME280;65863;49.506;10.400;2023-02-22T07:04:08;97840.84;;;0.43;100.00
9423;BME280;65863;49.506;10.400;2023-02-22T07:06:52;97828.91;;;0.57;100.00
9423;BME280;65863;49.506;10.400;2023-02-22T07:09:36;97842.53;;;0.66;100.00
9423;BME280;65863;49.506;10.400;2023-02-22T07:12:20;97844.56;;;0.66;100.00
9423;BME280;65863;49.506;10.400;2023-02-22T07:15:04;97799.13;;;0.41;100.00
9423;BME280;65863;49.506;10.400;2023-02-22T07:17:50;97845.41;;;0.78;100.00
9423;BME280;65863;49.506;10.400;2023-02-22T07:20:34;97837.00;;;0.66;100.00
9423;BME280;65863;49.506;10.400;2023-02-22T07:23:19;97850.66;;;0.76;100.00
9423;BME280;65863;49.506;10.400;2023-02-22T07:26:04;97817.13;;;0.62;100.00
9423;BME280;65863;49.506;10.400;2023-02-22T07:28:48;97821.22;;;0.67;100.00
9423;BME280;65863;49.506;10.400;2023-02-22T07:31:36;97828.38;;;0.85;100.00
9423;BME280;65863;49.506;10.400;2023-02-22T07:34:21;97837.28;;;1.00;100.00
9423;BME280;65863;49.506;10.400;2023-02-22T07:37:05;97817.59;;;0.87;100.00
9423;BME280;65863;49.506;10.400;2023-02-22T07:39:49;97841.16;;;1.20;100.00
9423;BME280;65863;49.506;10.400;2023-02-22T07:42:33;97829.88;;;1.18;100.00
9423;BME280;65863;49.506;10.400;2023-02-22T07:45:17;97840.06;;;1.44;100.00
9423;BME280;65863;49.506;10.400;2023-02-22T07:48:02;97841.38;;;1.60;100.00
9423;BME280;65863;49.506;10.400;2023-02-22T07:50:48;97812.41;;;1.44;100.00
9423;BME280;65863;49.506;10.400;2023-02-22T07:53:32;97826.53;;;1.57;100.00
9423;BME280;65863;49.506;10.400;2023-02-22T07:56:16;97824.13;;;1.82;100.00
9423;BME280;65863;49.506;10.400;2023-02-22T07:59:00;97842.81;;;2.10;100.00
9423;BME280;65863;49.506;10.400;2023-02-22T08:01:48;97787.63;;;1.78;100.00
9423;BME280;65863;49.506;10.400;2023-02-22T08:04:33;97836.09;;;2.39;100.00
9423;BME280;65863;49.506;10.400;2023-02-22T08:07:17;97845.44;;;2.70;100.00
9423;BME280;65863;49.506;10.400;2023-02-22T08:10:01;97824.03;;;2.82;100.00
9423;BME280;65863;49.506;10.400;2023-02-22T08:12:49;97832.53;;;3.35;100.00
9423;BME280;65863;49.506;10.400;2023-02-22T08:15:35;97830.22;;;3.56;100.00
9423;BME280;65863;49.506;10.400;2023-02-22T08:18:21;97839.75;;;3.66;100.00
9423;BME280;65863;49.506;10.400;2023-02-22T08:21:05;97822.00;;;3.86;100.00
9423;BME280;65863;49.506;10.400;2023-02-22T08:23:50;97823.56;;;4.23;100.00
9423;BME280;65863;49.506;10.400;2023-02-22T08:26:36;97846.94;;;4.45;100.00
9423;BME280;65863;49.506;10.400;2023-02-22T08:29:20;97832.28;;;4.44;100.00
9423;BME280;65863;49.506;10.400;2023-02-22T08:32:06;97827.03;;;4.71;100.00
9423;BME280;65863;49.506;10.400;2023-02-22T08:34:50;97831.09;;;5.00;100.00
9423;BME280;65863;49.506;10.400;2023-02-22T08:37:35;97833.41;;;5.51;100.00
9423;BME280;65863;49.506;10.400;2023-02-22T08:40:21;97830.91;;;5.92;100.00
9423;BME280;65863;49.506;10.400;2023-02-22T08:43:05;97802.59;;;6.26;100.00
9423;BME280;65863;49.506;10.400;2023-02-22T08:45:50;97833.25;;;6.77;100.00
9423;BME280;65863;49.506;10.400;2023-02-22T08:48:34;97803.44;;;6.72;99.71
9423;BME280;65863;49.506;10.400;2023-02-22T08:51:18;97815.63;;;6.69;98.08
9423;BME280;65863;49.506;10.400;2023-02-22T08:54:03;97819.03;;;6.94;97.54
9423;BME280;65863;49.506;10.400;2023-02-22T08:56:49;97810.84;;;6.83;96.31
9423;BME280;65863;49.506;10.400;2023-02-22T08:59:34;97821.69;;;7.19;95.54
9423;BME280;65863;49.506;10.400;2023-02-22T09:02:20;97815.13;;;7.30;94.55
9423;BME280;65863;49.506;10.400;2023-02-22T09:05:04;97814.59;;;7.31;93.51
9423;BME280;65863;49.506;10.400;2023-02-22T09:07:49;97777.97;;;7.08;92.65
9423;BME280;65863;49.506;10.400;2023-02-22T09:10:33;97827.81;;;7.57;91.84
9423;BME280;65863;49.506;10.400;2023-02-22T09:13:18;97822.22;;;7.57;91.01
9423;BME280;65863;49.506;10.400;2023-02-22T09:16:01;97808.00;;;7.96;90.68
9423;BME280;65863;49.506;10.400;2023-02-22T09:18:45;97812.59;;;8.20;89.44
9423;BME280;65863;49.506;10.400;2023-02-22T09:21:30;97786.91;;;8.08;88.63
9423;BME280;65863;49.506;10.400;2023-02-22T09:24:15;97812.31;;;8.66;88.01
9423;BME280;65863;49.506;10.400;2023-02-22T09:26:59;97800.59;;;8.88;87.15
9423;BME280;65863;49.506;10.400;2023-02-22T09:29:46;97813.47;;;9.12;85.87
9423;BME280;65863;49.506;10.400;2023-02-22T09:32:30;97791.63;;;9.11;84.53
9423;BME280;65863;49.506;10.400;2023-02-22T09:35:15;97824.38;;;9.24;83.68
9423;BME280;65863;49.506;10.400;2023-02-22T09:37:59;97821.84;;;9.62;82.98
9423;BME280;65863;49.506;10.400;2023-02-22T09:41:21;97816.53;;;9.80;82.61
9423;BME280;65863;49.506;10.400;2023-02-22T09:44:20;97815.16;;;10.10;82.04
9423;BME280;65863;49.506;10.400;2023-02-22T09:47:13;97814.09;;;10.28;80.89
9423;BME280;65863;49.506;10.400;2023-02-22T09:50:01;97818.38;;;10.22;80.26
9423;BME280;65863;49.506;10.400;2023-02-22T09:52:54;97792.78;;;10.33;79.51
9423;BME280;65863;49.506;10.400;2023-02-22T09:55:44;97812.66;;;10.35;78.67
9423;BME280;65863;49.506;10.400;2023-02-22T09:58:33;97806.63;;;10.31;77.85
9423;BME280;65863;49.506;10.400;2023-02-22T10:01:29;97781.16;;;10.21;77.98
9423;BME280;65863;49.506;10.400;2023-02-22T10:04:35;97812.16;;;10.60;77.23
9423;BME280;65863;49.506;10.400;2023-02-22T10:07:33;97793.16;;;10.29;76.56
9423;BME280;65863;49.506;10.400;2023-02-22T10:10:22;97807.28;;;10.45;76.54
9423;BME280;65863;49.506;10.400;2023-02-22T10:16:19;97815.75;;;11.22;75.19
9423;BME280;65863;49.506;10.400;2023-02-22T10:22:44;97802.28;;;11.92;73.89
9423;BME280;65863;49.506;10.400;2023-02-22T10:25:35;97794.53;;;12.82;72.31
9423;BME280;65863;49.506;10.400;2023-02-22T10:28:23;97798.91;;;13.00;69.16
9423;BME280;65863;49.506;10.400;2023-02-22T10:31:20;97790.59;;;12.77;67.43
9423;BME280;65863;49.506;10.400;2023-02-22T10:34:15;97773.31;;;13.06;67.71
9423;BME280;65863;49.506;10.400;2023-02-22T10:37:18;97782.88;;;13.71;65.42
9423;BME280;65863;49.506;10.400;2023-02-22T10:40:16;97789.63;;;14.03;63.74
9423;BME280;65863;49.506;10.400;2023-02-22T10:43:05;97782.06;;;14.05;62.20
9423;BME280;65863;49.506;10.400;2023-02-22T10:45:52;97790.09;;;14.26;61.31
9423;BME280;65863;49.506;10.400;2023-02-22T10:48:40;97784.53;;;14.19;60.62
9423;BME280;65863;49.506;10.400;2023-02-22T10:51:24;97751.69;;;14.14;60.22
9423;BME280;65863;49.506;10.400;2023-02-22T10:56:58;97756.41;;;14.11;58.97
9423;BME280;65863;49.506;10.400;2023-02-22T10:59:42;97771.44;;;14.14;59.29
9423;BME280;65863;49.506;10.400;2023-02-22T11:02:31;97758.88;;;13.80;60.50
9423;BME280;65863;49.506;10.400;2023-02-22T11:05:38;97769.63;;;14.08;60.76
9423;BME280;65863;49.506;10.400;2023-02-22T11:08:26;97766.84;;;14.45;60.56
9423;BME280;65863;49.506;10.400;2023-02-22T11:11:38;97766.72;;;15.27;59.36
9423;BME280;65863;49.506;10.400;2023-02-22T11:14:31;97738.31;;;15.35;57.58
9423;BME280;65863;49.506;10.400;2023-02-22T11:17:21;97754.97;;;15.41;56.42
9423;BME280;65863;49.506;10.400;2023-02-22T11:20:17;97743.91;;;14.96;56.78
9423;BME280;65863;49.506;10.400;2023-02-22T11:23:09;97749.66;;;14.88;57.81
9423;BME280;65863;49.506;10.400;2023-02-22T11:26:09;97715.00;;;14.78;57.65
9423;BME280;65863;49.506;10.400;2023-02-22T11:28:55;97713.09;;;14.90;57.36
9423;BME280;65863;49.506;10.400;2023-02-22T11:31:41;97734.72;;;15.25;57.42
9423;BME280;65863;49.506;10.400;2023-02-22T11:34:35;97721.91;;;15.04;57.49
9423;BME280;65863;49.506;10.400;2023-02-22T11:37:35;97732.22;;;15.29;57.44
9423;BME280;65863;49.506;10.400;2023-02-22T11:40:21;97716.56;;;15.28;58.35
9423;BME280;65863;49.506;10.400;2023-02-22T11:43:08;97711.84;;;15.70;58.47
9423;BME280;65863;49.506;10.400;2023-02-22T11:46:01;97706.91;;;15.41;58.70
9423;BME280;65863;49.506;10.400;2023-02-22T11:49:10;97706.16;;;15.40;57.67
9423;BME280;65863;49.506;10.400;2023-02-22T11:52:08;97704.97;;;15.33;57.76
9423;BME280;65863;49.506;10.400;2023-02-22T11:57:58;97697.31;;;14.40;59.63
9423;BME280;65863;49.506;10.400;2023-02-22T12:00:57;97695.34;;;14.43;60.23
9423;BME280;65863;49.506;10.400;2023-02-22T12:03:53;97688.97;;;14.42;60.31
9423;BME280;65863;49.506;10.400;2023-02-22T12:07:04;97663.66;;;14.25;61.16
9423;BME280;65863;49.506;10.400;2023-02-22T12:16:05;97675.78;;;15.60;59.22
9423;BME280;65863;49.506;10.400;2023-02-22T12:19:18;97676.09;;;15.94;57.42
9423;BME280;65863;49.506;10.400;2023-02-22T12:22:29;97673.53;;;15.98;56.64
9423;BME280;65863;49.506;10.400;2023-02-22T12:25:24;97658.66;;;16.70;56.28
9423;BME280;65863;49.506;10.400;2023-02-22T12:28:19;97673.28;;;16.98;54.86
9423;BME280;65863;49.506;10.400;2023-02-22T12:31:24;97668.41;;;17.32;53.91
9423;BME280;65863;49.506;10.400;2023-02-22T12:37:10;97655.16;;;16.81;53.05
9423;BME280;65863;49.506;10.400;2023-02-22T12:43:12;97666.69;;;15.91;56.50
9423;BME280;65863;49.506;10.400;2023-02-22T12:46:06;97670.13;;;15.70;57.12
9423;BME280;65863;49.506;10.400;2023-02-22T12:48:57;97638.41;;;15.81;56.96
9423;BME280;65863;49.506;10.400;2023-02-22T12:54:58;97652.00;;;15.54;57.91
9423;BME280;65863;49.506;10.400;2023-02-22T13:01:02;97649.59;;;15.60;58.78
9423;BME280;65863;49.506;10.400;2023-02-22T13:03:47;97621.44;;;15.62;58.80
9423;BME280;65863;49.506;10.400;2023-02-22T13:13:05;97625.81;;;16.14;57.65
9423;BME280;65863;49.506;10.400;2023-02-22T13:18:44;97611.91;;;15.87;57.11
9423;BME280;65863;49.506;10.400;2023-02-22T13:21:46;97627.53;;;15.78;58.25
9423;BME280;65863;49.506;10.400;2023-02-22T13:25:00;97629.31;;;15.73;58.56
9423;BME280;65863;49.506;10.400;2023-02-22T13:27:51;97611.06;;;15.45;58.90
9423;BME280;65863;49.506;10.400;2023-02-22T13:34:29;97631.13;;;15.59;59.15
9423;BME280;65863;49.506;10.400;2023-02-22T13:49:36;97617.28;;;15.63;59.10
9423;BME280;65863;49.506;10.400;2023-02-22T13:52:27;97618.38;;;15.38;58.93
9423;BME280;65863;49.506;10.400;2023-02-22T13:55:23;97615.06;;;15.52;59.39
9423;BME280;65863;49.506;10.400;2023-02-22T13:58:11;97599.63;;;15.33;59.27
9423;BME280;65863;49.506;10.400;2023-02-22T14:00:57;97614.78;;;15.47;59.60
9423;BME280;65863;49.506;10.400;2023-02-22T14:03:42;97571.94;;;14.92;59.32
9423;BME280;65863;49.506;10.400;2023-02-22T14:06:36;97596.78;;;15.23;58.98
9423;BME280;65863;49.506;10.400;2023-02-22T14:09:41;97606.75;;;15.05;59.19
9423;BME280;65863;49.506;10.400;2023-02-22T14:15:18;97601.13;;;15.05;59.95
9423;BME280;65863;49.506;10.400;2023-02-22T14:18:05;97578.47;;;14.75;60.69
9423;BME280;65863;49.506;10.400;2023-02-22T14:21:08;97570.78;;;14.86;60.88
9423;BME280;65863;49.506;10.400;2023-02-22T14:23:54;97582.38;;;14.80;61.15
9423;BME280;65863;49.506;10.400;2023-02-22T14:26:40;97528.94;;;14.45;61.39
9423;BME280;65863;49.506;10.400;2023-02-22T14:29:36;97577.00;;;14.94;61.44
9423;BME280;65863;49.506;10.400;2023-02-22T14:32:29;97577.00;;;14.94;60.92
9423;BME280;65863;49.506;10.400;2023-02-22T14:35:15;97570.91;;;14.88;61.13
9423;BME280;65863;49.506;10.400;2023-02-22T14:38:01;97574.19;;;14.74;61.78
9423;BME280;65863;49.506;10.400;2023-02-22T14:40:48;97586.97;;;14.85;61.87
9423;BME280;65863;49.506;10.400;2023-02-22T14:43:35;97571.50;;;14.76;61.86
9423;BME280;65863;49.506;10.400;2023-02-22T14:46:23;97586.53;;;14.89;61.88
9423;BME280;65863;49.506;10.400;2023-02-22T14:49:12;97566.75;;;14.69;61.99
9423;BME280;65863;49.506;10.400;2023-02-22T14:52:06;97581.00;;;14.71;62.24
9423;BME280;65863;49.506;10.400;2023-02-22T14:55:17;97592.63;;;14.85;62.50
9423;BME280;65863;49.506;10.400;2023-02-22T15:01:26;97582.50;;;14.82;62.48
9423;BME280;65863;49.506;10.400;2023-02-22T15:04:28;97575.81;;;14.77;62.37
9423;BME280;65863;49.506;10.400;2023-02-22T15:07:23;97556.13;;;14.40;62.51
9423;BME280;65863;49.506;10.400;2023-02-22T15:10:23;97573.22;;;14.52;63.28
9423;BME280;65863;49.506;10.400;2023-02-22T15:16:00;97578.66;;;14.21;65.04
9423;BME280;65863;49.506;10.400;2023-02-22T15:18:47;97550.03;;;13.97;65.71
9423;BME280;65863;49.506;10.400;2023-02-22T15:21:33;97564.63;;;14.03;65.71
9423;BME280;65863;49.506;10.400;2023-02-22T15:24:21;97562.19;;;13.90;65.85
9423;BME280;65863;49.506;10.400;2023-02-22T15:27:13;97544.19;;;13.75;66.22
9423;BME280;65863;49.506;10.400;2023-02-22T15:29:59;97565.25;;;13.74;66.71
9423;BME280;65863;49.506;10.400;2023-02-22T15:32:47;97544.66;;;13.54;67.05
9423;BME280;65863;49.506;10.400;2023-02-22T15:35:32;97572.66;;;13.70;67.55
9423;BME280;65863;49.506;10.400;2023-02-22T15:38:25;97576.59;;;13.57;67.96
9423;BME280;65863;49.506;10.400;2023-02-22T15:41:20;97546.97;;;13.21;68.32
9423;BME280;65863;49.506;10.400;2023-02-22T15:44:10;97556.09;;;13.12;68.76
9423;BME280;65863;49.506;10.400;2023-02-22T15:46:54;97529.69;;;12.89;69.54
9423;BME280;65863;49.506;10.400;2023-02-22T15:49:39;97549.16;;;12.95;69.71
9423;BME280;65863;49.506;10.400;2023-02-22T15:52:24;97558.66;;;13.00;70.04
9423;BME280;65863;49.506;10.400;2023-02-22T15:55:09;97505.50;;;12.51;70.35
9423;BME280;65863;49.506;10.400;2023-02-22T15:57:55;97567.63;;;12.88;70.63
9423;BME280;65863;49.506;10.400;2023-02-22T16:00:43;97562.59;;;12.69;70.88
9423;BME280;65863;49.506;10.400;2023-02-22T16:03:33;97556.47;;;12.63;71.47
9423;BME280;65863;49.506;10.400;2023-02-22T16:06:34;97558.25;;;12.68;71.29
9423;BME280;65863;49.506;10.400;2023-02-22T16:09:19;97576.06;;;12.71;71.66
9423;BME280;65863;49.506;10.400;2023-02-22T16:12:08;97579.13;;;12.65;72.09
9423;BME280;65863;49.506;10.400;2023-02-22T16:14:53;97555.69;;;12.45;72.09
9423;BME280;65863;49.506;10.400;2023-02-22T16:17:39;97579.88;;;12.48;72.45
9423;BME280;65863;49.506;10.400;2023-02-22T16:23:24;97553.03;;;12.04;73.27
9423;BME280;65863;49.506;10.400;2023-02-22T16:26:28;97556.63;;;12.05;73.52
9423;BME280;65863;49.506;10.400;2023-02-22T16:29:24;97572.44;;;12.18;73.80